Time,TemperatureF,DewpointF,PressureIn,WindDirection,WindDirectionDegrees,WindSpeedMPH,WindSpeedGustMPH,Humidity,HourlyPrecipIn,Conditions,Clouds,dailyrainin,SoftwareType,DateUTC
2013-02-11 09:02:00,17.0,-99.9,-100.00,North,-999,-999.0,-999.0,-999,-99.99,,,0.00,,2013-02-11 17:02:00,
2013-02-11 09:12:00,17.0,-99.9,-100.00,North,-999,-999.0,-999.0,-999,-99.99,,,0.00,,2013-02-11 17:12:00,
2013-02-11 09:22:00,17.0,-99.9,-100.00,North,-999,-999.0,-999.0,-999,-99.99,,,0.00,,2013-02-11 17:22:00,
2013-02-11 09:33:00,17.0,-99.9,-100.00,North,-999,-999.0,-999.0,-999,-99.99,,,0.00,,2013-02-11 17:33:00,
2013-02-11 10:01:00,35.0,9.0,-100.00,SSE,148,2.0,5.0,34,-99.99,,,0.00,,2013-02-11 18:01:00,
2013-02-11 10:31:00,35.0,9.0,-100.00,SSE,148,2.0,5.0,34,-99.99,,,0.00,,2013-02-11 18:31:00,
2013-02-11 11:02:00,37.0,8.0,-100.00,NNW,340,4.0,10.0,29,0.00,,,0.00,,2013-02-11 19:02:00,
2013-02-11 11:11:00,37.0,8.0,-100.00,NNW,340,4.0,10.0,29,0.00,,,0.00,,2013-02-11 19:11:00,
2013-02-11 11:21:00,37.0,8.0,-100.00,NNW,340,4.0,10.0,29,0.00,,,0.00,,2013-02-11 19:21:00,
2013-02-11 11:31:00,37.0,8.0,-100.00,NNW,340,4.0,10.0,29,0.00,,,0.00,,2013-02-11 19:31:00,
2013-02-11 12:01:00,40.0,7.0,-100.00,NNW,335,4.0,14.0,25,0.01,,,0.01,,2013-02-11 20:01:00,
2013-02-11 12:11:00,40.0,7.0,-100.00,NNW,335,4.0,14.0,25,0.01,,,0.01,,2013-02-11 20:11:00,
2013-02-11 12:21:00,40.0,7.0,-100.00,NNW,335,4.0,14.0,25,0.01,,,0.01,,2013-02-11 20:21:00,
2013-02-11 12:31:00,40.0,7.0,-100.00,NNW,335,4.0,14.0,25,0.01,,,0.01,,2013-02-11 20:31:00,
2013-02-11 13:02:00,39.0,6.0,-100.00,NNW,342,4.0,13.0,25,0.02,,,0.03,,2013-02-11 21:02:00,
2013-02-11 13:11:00,39.0,6.0,-100.00,NNW,342,4.0,13.0,25,0.02,,,0.03,,2013-02-11 21:11:00,
2013-02-11 13:21:00,39.0,6.0,-100.00,NNW,342,4.0,13.0,25,0.02,,,0.03,,2013-02-11 21:21:00,
2013-02-11 13:31:00,39.0,6.0,-100.00,NNW,342,4.0,13.0,25,0.02,,,0.03,,2013-02-11 21:31:00,
2013-02-11 14:01:00,36.0,5.0,-100.00,NNW,336,4.0,12.0,27,0.00,,,0.03,,2013-02-11 22:01:00,
2013-02-11 14:11:00,36.0,5.0,-100.00,NNW,336,4.0,12.0,27,0.00,,,0.03,,2013-02-11 22:11:00,
2013-02-11 14:21:00,36.0,5.0,-100.00,NNW,336,4.0,12.0,27,0.00,,,0.03,,2013-02-11 22:21:00,
2013-02-11 14:31:00,36.0,5.0,-100.00,NNW,336,4.0,12.0,27,0.00,,,0.03,,2013-02-11 22:31:00,
2013-02-11 15:01:00,41.0,10.0,-100.00,NNE,20,2.0,12.0,27,0.00,,,0.03,,2013-02-11 23:01:00,
2013-02-11 15:11:00,41.0,10.0,-100.00,NNE,20,2.0,12.0,27,0.00,,,0.03,,2013-02-11 23:11:00,
2013-02-11 15:21:00,41.0,10.0,-100.00,NNE,20,2.0,12.0,27,0.00,,,0.03,,2013-02-11 23:21:00,
2013-02-11 15:31:00,41.0,10.0,-100.00,NNE,20,2.0,12.0,27,0.00,,,0.03,,2013-02-11 23:31:00,
2013-02-11 15:52:00,38.0,9.0,-100.00,NNW,339,4.0,10.0,29,0.00,,,0.03,,2013-02-11 23:52:00,
2013-02-11 16:01:00,38.0,9.0,-100.00,NNW,339,4.0,10.0,29,0.00,,,0.03,,2013-02-12 00:01:00,
2013-02-11 16:11:00,38.0,9.0,-100.00,NNW,339,4.0,10.0,29,0.00,,,0.03,,2013-02-12 00:11:00,
2013-02-11 16:21:00,38.0,9.0,-100.00,NNW,339,4.0,10.0,29,0.00,,,0.03,,2013-02-12 00:21:00,
2013-02-11 16:31:00,38.0,9.0,-100.00,NNW,339,4.0,10.0,29,0.00,,,0.03,,2013-02-12 00:31:00,
2013-02-11 17:01:00,37.0,9.0,-100.00,NW,309,3.0,9.0,31,0.00,,,-99.99,,2013-02-12 01:01:00,
2013-02-11 17:11:00,37.0,9.0,-100.00,NW,309,3.0,9.0,31,0.00,,,-99.99,,2013-02-12 01:11:00,
2013-02-11 17:21:00,37.0,9.0,-100.00,NW,309,3.0,9.0,31,0.00,,,-99.99,,2013-02-12 01:21:00,
2013-02-11 17:31:00,37.0,9.0,-100.00,NW,309,3.0,9.0,31,0.00,,,-99.99,,2013-02-12 01:31:00,
2013-02-11 18:01:00,30.0,11.0,-100.00,ESE,112,1.0,6.0,44,0.00,,,0.03,,2013-02-12 02:01:00,
2013-02-11 18:11:00,30.0,11.0,-100.00,ESE,112,1.0,6.0,44,0.00,,,0.03,,2013-02-12 02:11:00,
2013-02-11 18:21:00,30.0,11.0,-100.00,ESE,112,1.0,6.0,44,0.00,,,0.03,,2013-02-12 02:21:00,
2013-02-11 18:31:00,30.0,11.0,-100.00,ESE,112,1.0,6.0,44,0.00,,,0.03,,2013-02-12 02:31:00,
2013-02-11 19:02:00,25.0,13.0,-100.00,SSW,207,1.0,2.0,59,0.00,,,0.03,,2013-02-12 03:02:00,
2013-02-11 19:11:00,25.0,13.0,-100.00,SSW,207,1.0,2.0,59,0.00,,,0.03,,2013-02-12 03:11:00,
2013-02-11 19:21:00,25.0,13.0,-100.00,SSW,207,1.0,2.0,59,0.00,,,0.03,,2013-02-12 03:21:00,
2013-02-11 19:31:00,25.0,13.0,-100.00,SSW,207,1.0,2.0,59,0.00,,,0.03,,2013-02-12 03:31:00,
2013-02-11 20:01:00,23.0,13.0,-100.00,NW,309,1.0,4.0,64,0.00,,,0.03,,2013-02-12 04:01:00,
2013-02-11 20:11:00,23.0,13.0,-100.00,NW,309,1.0,4.0,64,0.00,,,0.03,,2013-02-12 04:11:00,
2013-02-11 20:21:00,23.0,13.0,-100.00,NW,309,1.0,4.0,64,0.00,,,0.03,,2013-02-12 04:21:00,
2013-02-11 20:31:00,23.0,13.0,-100.00,NW,309,1.0,4.0,64,0.00,,,0.03,,2013-02-12 04:31:00,